createdAt,value
2018-09-15T00:05:34.934Z,99840.31
2018-09-15T00:11:39.793Z,99849.13
2018-09-15T00:17:46.551Z,99836.23
2018-09-15T00:23:51.349Z,99823.96
2018-09-15T00:29:56.133Z,99824.19
2018-09-15T00:36:00.881Z,99826.88
2018-09-15T00:42:13.209Z,99834.99
2018-09-15T00:48:17.975Z,99834.37
2018-09-15T00:54:22.650Z,99828.59
2018-09-15T01:00:27.445Z,99831.66
2018-09-15T01:06:32.220Z,99826.73
2018-09-15T01:12:37.374Z,99833.22
2018-09-15T01:18:42.035Z,99844.35
2018-09-15T01:24:47.343Z,99851.00
2018-09-15T01:30:52.085Z,99848.58
2018-09-15T01:36:56.835Z,99844.38
2018-09-15T01:43:01.511Z,99850.52
2018-09-15T01:49:06.353Z,99860.78
2018-09-15T01:55:11.694Z,99866.38
2018-09-15T02:01:16.732Z,99864.09
2018-09-15T02:07:21.552Z,99872.60
2018-09-15T02:13:26.213Z,99877.14
2018-09-15T02:19:30.960Z,99888.73
2018-09-15T02:25:35.760Z,99885.80
2018-09-15T02:31:41.777Z,99887.66
2018-09-15T02:37:46.477Z,99891.31
2018-09-15T02:43:51.611Z,99891.26
2018-09-15T02:49:56.435Z,99887.18
2018-09-15T02:56:01.362Z,99890.23
2018-09-15T03:02:06.125Z,99891.33
2018-09-15T03:08:11.516Z,99893.55
2018-09-15T03:14:16.498Z,99886.16
2018-09-15T03:20:21.288Z,99875.98
2018-09-15T03:26:26.090Z,99874.93
2018-09-15T03:32:30.781Z,99886.23
2018-09-15T03:38:35.622Z,99894.94
2018-09-15T03:44:40.927Z,99893.66
2018-09-15T03:50:46.223Z,99903.27
2018-09-15T03:56:51.541Z,99896.09
2018-09-15T04:02:56.327Z,99888.46
2018-09-15T04:09:01.094Z,99897.56
2018-09-15T04:15:05.869Z,99901.47
2018-09-15T04:21:10.856Z,99908.05
2018-09-15T04:27:15.531Z,99916.76
2018-09-15T04:33:20.554Z,99923.16
2018-09-15T04:39:25.669Z,99919.02
2018-09-15T04:45:30.668Z,99920.26
2018-09-15T04:51:35.311Z,99921.53
2018-09-15T04:57:40.883Z,99939.11
2018-09-15T05:03:46.037Z,99942.03
2018-09-15T05:09:50.763Z,99963.05
2018-09-15T05:15:55.607Z,99966.02
2018-09-15T05:22:00.459Z,99960.45
2018-09-15T05:28:05.242Z,99965.73
2018-09-15T05:34:10.016Z,99966.80
2018-09-15T05:40:14.856Z,99983.52
2018-09-15T05:46:19.529Z,99984.13
2018-09-15T05:52:24.368Z,99991.95
2018-09-15T05:58:29.038Z,100002.69
2018-09-15T06:04:33.750Z,100006.06
2018-09-15T06:10:38.426Z,100018.33
2018-09-15T06:16:43.342Z,100028.84
2018-09-15T06:22:48.003Z,100030.44
2018-09-15T06:28:53.115Z,100035.24
2018-09-15T06:34:57.977Z,100030.33
2018-09-15T06:41:02.773Z,100035.36
2018-09-15T06:47:07.601Z,100040.91
2018-09-15T06:53:12.281Z,100043.95
2018-09-15T06:59:17.108Z,100038.14
2018-09-15T07:05:22.048Z,100043.95
2018-09-15T07:11:26.718Z,100051.30
2018-09-15T07:17:31.424Z,100054.81
2018-09-15T07:23:36.117Z,100068.73
2018-09-15T07:29:41.359Z,100066.77
2018-09-15T07:35:46.255Z,100067.95
2018-09-15T07:41:50.914Z,100073.00
2018-09-15T07:47:55.684Z,100081.14
2018-09-15T07:54:00.461Z,100079.27
2018-09-15T08:00:05.450Z,100080.67
2018-09-15T08:06:10.390Z,100085.36
2018-09-15T08:12:16.262Z,100074.69
2018-09-15T08:18:21.038Z,100082.61
2018-09-15T08:24:25.779Z,100094.33
2018-09-15T08:30:30.505Z,100100.95
2018-09-15T08:36:35.192Z,100107.28
2018-09-15T08:42:39.980Z,100114.52
2018-09-15T08:48:44.638Z,100114.28
2018-09-15T08:54:49.739Z,100113.55
2018-09-15T09:00:54.547Z,100110.03
2018-09-15T09:06:59.351Z,100105.61
2018-09-15T09:13:04.115Z,100105.22
2018-09-15T09:19:09.108Z,100085.85
2018-09-15T09:25:14.704Z,100099.67
2018-09-15T09:31:19.488Z,100098.80
2018-09-15T09:37:24.155Z,100104.55
2018-09-15T09:43:28.874Z,100094.05
2018-09-15T09:49:33.528Z,100087.81
2018-09-15T09:55:38.240Z,100103.08
2018-09-15T10:01:48.408Z,100087.75
2018-09-15T10:07:53.101Z,100089.91
2018-09-15T10:13:57.828Z,100090.16
2018-09-15T10:20:02.787Z,100097.52
2018-09-15T10:26:08.072Z,100090.73
2018-09-15T10:32:12.807Z,100091.05
2018-09-15T10:38:17.443Z,100079.13
2018-09-15T10:44:22.216Z,100076.89
2018-09-15T10:50:26.881Z,100087.20
2018-09-15T10:56:31.610Z,100101.08
2018-09-15T11:02:36.877Z,100104.87
2018-09-15T11:08:41.831Z,100107.39
2018-09-15T11:14:46.734Z,100104.92
2018-09-15T11:20:51.439Z,100094.30
2018-09-15T11:26:56.451Z,100093.52
2018-09-15T11:33:01.458Z,100102.32
2018-09-15T11:39:13.242Z,100091.37
2018-09-15T11:45:18.599Z,100092.91
2018-09-15T11:51:23.780Z,100093.91
2018-09-15T11:57:29.124Z,100083.41
2018-09-15T12:03:33.752Z,100087.91
2018-09-15T12:09:38.511Z,100086.50
2018-09-15T12:15:43.706Z,100084.65
2018-09-15T12:21:48.435Z,100089.77
2018-09-15T12:27:53.295Z,100077.97
2018-09-15T12:33:58.104Z,100094.07
2018-09-15T12:40:02.895Z,100097.73
2018-09-15T12:46:07.830Z,100092.50
2018-09-15T12:52:12.577Z,100089.84
2018-09-15T12:58:17.636Z,100082.25
2018-09-15T13:04:22.316Z,100066.52
2018-09-15T13:10:27.065Z,100069.27
2018-09-15T13:16:31.776Z,100081.72
2018-09-15T13:22:36.467Z,100082.02
2018-09-15T13:28:41.971Z,100074.77
2018-09-15T13:34:46.636Z,100088.90
2018-09-15T13:40:51.434Z,100096.22
2018-09-15T13:46:56.238Z,100112.23
2018-09-15T13:53:01.204Z,100114.03
2018-09-15T13:59:06.313Z,100110.27
2018-09-15T14:05:12.524Z,100125.78
2018-09-15T14:11:17.383Z,100128.27
2018-09-15T14:17:22.124Z,100134.82
2018-09-15T14:23:27.064Z,100133.11
2018-09-15T14:29:32.258Z,100132.58
2018-09-15T14:35:37.259Z,100135.13
2018-09-15T14:41:42.336Z,100144.77
2018-09-15T14:47:47.828Z,100126.24
2018-09-15T14:53:52.631Z,100139.74
2018-09-15T14:59:57.332Z,100123.43
2018-09-15T15:06:02.069Z,100115.33
2018-09-15T15:12:06.776Z,100109.56
2018-09-15T15:18:12.291Z,100120.52
2018-09-15T15:24:17.288Z,100136.51
2018-09-15T15:30:22.133Z,100145.63
2018-09-15T15:36:26.828Z,100152.43
2018-09-15T15:42:31.500Z,100158.78
2018-09-15T15:48:36.371Z,100159.91
2018-09-15T15:54:41.302Z,100149.95
2018-09-15T16:00:46.750Z,100147.30
2018-09-15T16:06:51.750Z,100142.82
2018-09-15T16:12:56.417Z,100137.89
2018-09-15T16:19:01.316Z,100145.66
2018-09-15T16:25:06.085Z,100147.54
2018-09-15T16:31:11.744Z,100149.86
2018-09-15T16:37:16.720Z,100152.02
2018-09-15T16:43:21.452Z,100163.08
2018-09-15T16:49:26.163Z,100160.89
2018-09-15T16:55:31.101Z,100158.28
2018-09-15T17:01:36.265Z,100160.89
2018-09-15T17:07:41.139Z,100164.40
2018-09-15T17:13:46.121Z,100168.35
2018-09-15T17:19:51.424Z,100177.61
2018-09-15T17:25:56.129Z,100175.34
2018-09-15T17:32:00.979Z,100180.30
2018-09-15T17:38:05.941Z,100184.08
2018-09-15T17:44:10.948Z,100202.16
2018-09-15T17:50:15.804Z,100210.66
2018-09-15T17:56:20.515Z,100219.42
2018-09-15T18:02:25.300Z,100222.88
2018-09-15T18:08:30.175Z,100217.16
2018-09-15T18:14:34.901Z,100224.31
2018-09-15T18:20:39.730Z,100222.81
2018-09-15T18:26:44.515Z,100233.08
2018-09-15T18:32:49.268Z,100241.27
2018-09-15T18:38:53.953Z,100242.21
2018-09-15T18:44:58.770Z,100243.70
2018-09-15T18:51:03.564Z,100242.73
2018-09-15T18:57:08.366Z,100235.02
2018-09-15T19:03:16.822Z,100240.13
2018-09-15T19:09:21.557Z,100243.86
2018-09-15T19:15:27.320Z,100250.01
2018-09-15T19:21:32.279Z,100261.30
2018-09-15T19:27:37.094Z,100261.69
2018-09-15T19:33:42.097Z,100272.13
2018-09-15T19:39:46.897Z,100287.28
2018-09-15T19:45:51.627Z,100283.59
2018-09-15T19:51:56.410Z,100285.97
2018-09-15T19:58:01.274Z,100291.63
2018-09-15T20:04:06.384Z,100283.94
2018-09-15T20:10:11.361Z,100282.30
2018-09-15T20:16:14.325Z,100289.62
2018-09-15T20:22:19.056Z,100294.58
2018-09-15T20:28:23.754Z,100294.27
2018-09-15T20:34:28.448Z,100295.80
2018-09-15T20:40:33.385Z,100297.95
2018-09-15T20:46:38.133Z,100297.48
2018-09-15T20:52:43.631Z,100310.16
2018-09-15T20:58:48.554Z,100312.73
2018-09-15T21:04:53.364Z,100316.52
2018-09-15T21:10:58.080Z,100319.75
2018-09-15T21:17:02.884Z,100320.48
2018-09-15T21:23:08.277Z,100322.02
2018-09-15T21:29:13.328Z,100329.73
2018-09-15T21:35:18.616Z,100340.23
2018-09-15T21:41:23.308Z,100343.38
2018-09-15T21:47:28.349Z,100345.33
2018-09-15T21:53:33.190Z,100346.88
2018-09-15T21:59:37.989Z,100343.05
2018-09-15T22:05:42.884Z,100341.98
2018-09-15T22:11:47.770Z,100345.48
2018-09-15T22:17:52.705Z,100351.22
2018-09-15T22:23:57.610Z,100355.79
2018-09-15T22:30:02.303Z,100356.06
2018-09-15T22:36:07.402Z,100355.56
2018-09-15T22:42:13.243Z,100353.00
2018-09-15T22:48:18.181Z,100355.69
2018-09-15T22:54:22.907Z,100360.82
2018-09-15T23:00:27.564Z,100360.27
2018-09-15T23:06:32.496Z,100354.94
2018-09-15T23:12:37.244Z,100361.63
2018-09-15T23:18:42.830Z,100351.79
2018-09-15T23:24:47.640Z,100359.20
2018-09-15T23:30:52.400Z,100353.30
2018-09-15T23:36:57.354Z,100357.48
2018-09-15T23:43:02.344Z,100355.23
2018-09-15T23:49:07.061Z,100350.40
2018-09-15T23:55:12.859Z,100342.78
